Time;durP1;ratioP1;P1;durP2;ratioP2;P2;SDS_P1;SDS_P2;PMS_P1;PMS_P2;Temp;Humidity;BMP_temperature;BMP_pressure;BME280_temperature;BME280_humidity;BME280_pressure;Samples;Min_cycle;Max_cycle;Signal;HPM_P1;HPM_P2
2021/12/21 00:01:52;;;;;;;26.48;9.52;;;;;;;;;;5037071;28;20116;-73
2021/12/21 00:04:17;;;;;;;24.55;8.45;;;;;;;;;;5032551;28;20029;-73
2021/12/21 00:06:43;;;;;;;19.73;8.90;;;;;;;;;;5054207;28;20406;-73
2021/12/21 00:09:09;;;;;;;26.63;9.38;;;;;;;;;;5047845;28;20037;-73
2021/12/21 00:11:35;;;;;;;36.20;9.80;;;;;;;;;;5042162;28;20430;-73
2021/12/21 00:14:31;;;;;;;28.95;9.68;;;;;;;;;;5045624;28;20104;-73
2021/12/21 00:23:08;;;;;;;22.75;8.27;;;;;;;;;;5040504;28;20536;-73
2021/12/21 00:24:55;;;;;;;22.55;9.07;;;;;;;;;;5039010;28;20516;-73
2021/12/21 00:27:21;;;;;;;23.27;8.40;;;;;;;;;;5036124;28;20037;-73
2021/12/21 00:29:46;;;;;;;29.45;9.68;;;;;;;;;;5060128;28;20044;-73
2021/12/21 00:32:12;;;;;;;25.00;8.70;;;;;;;;;;5047288;28;20040;-73
2021/12/21 00:34:38;;;;;;;27.60;8.63;;;;;;;;;;5037693;28;20102;-73
2021/12/21 00:37:04;;;;;;;31.33;9.07;;;;;;;;;;5030014;28;20545;-73
2021/12/21 00:39:29;;;;;;;27.13;9.55;;;;;;;;;;5026905;28;20044;-73
2021/12/21 00:41:55;;;;;;;27.80;9.38;;;;;;;;;;5038759;28;20032;-73
2021/12/21 00:44:20;;;;;;;28.48;8.27;;;;;;;;;;5036344;28;20037;-73
2021/12/21 00:46:45;;;;;;;27.30;9.02;;;;;;;;;;5027228;28;20072;-73
2021/12/21 00:49:15;;;;;;;21.90;8.35;;;;;;;;;;5007736;28;20421;-73
2021/12/21 00:51:43;;;;;;;21.25;8.00;;;;;;;;;;5040243;28;20028;-73
2021/12/21 00:54:09;;;;;;;23.40;8.38;;;;;;;;;;5038063;28;20132;-73
2021/12/21 00:56:35;;;;;;;21.05;8.40;;;;;;;;;;5039973;28;20423;-73
2021/12/21 00:59:00;;;;;;;19.48;8.30;;;;;;;;;;5018601;28;20522;-73
2021/12/21 01:01:26;;;;;;;30.25;9.00;;;;;;;;;;5038832;28;20148;-73
2021/12/21 01:03:53;;;;;;;29.10;8.70;;;;;;;;;;5034982;28;20029;-73
2021/12/21 01:06:38;;;;;;;28.83;9.40;;;;;;;;;;5036737;28;20654;-73
2021/12/21 01:11:40;;;;;;;25.63;9.35;;;;;;;;;;5044284;28;20033;-73
2021/12/21 01:16:48;;;;;;;24.45;8.57;;;;;;;;;;5038061;28;20036;-73
2021/12/21 01:19:19;;;;;;;27.05;8.13;;;;;;;;;;5023659;28;20020;-73
2021/12/21 01:22:00;;;;;;;23.65;8.85;;;;;;;;;;5037508;28;20025;-73
2021/12/21 01:35:23;;;;;;;23.20;9.80;;;;;;;;;;5031449;28;20677;-73
2021/12/21 01:38:02;;;;;;;23.95;8.60;;;;;;;;;;5038476;28;20132;-73
2021/12/21 01:51:07;;;;;;;26.63;8.82;;;;;;;;;;5063201;28;20135;-73
2021/12/21 01:53:33;;;;;;;19.58;8.13;;;;;;;;;;5058699;28;20127;-73
2021/12/21 01:55:59;;;;;;;28.73;9.90;;;;;;;;;;5058014;28;20412;-73
2021/12/21 01:58:24;;;;;;;25.88;9.02;;;;;;;;;;5058032;28;20505;-73
2021/12/21 02:00:50;;;;;;;23.67;9.48;;;;;;;;;;5065067;28;20028;-73
2021/12/21 02:03:16;;;;;;;34.65;9.52;;;;;;;;;;5057739;28;20033;-73
2021/12/21 02:05:42;;;;;;;33.75;9.85;;;;;;;;;;5055234;28;20119;-73
2021/12/21 02:08:07;;;;;;;22.90;9.13;;;;;;;;;;5040458;28;20047;-73
2021/12/21 02:10:33;;;;;;;22.02;8.45;;;;;;;;;;5063515;28;20037;-73
2021/12/21 02:12:59;;;;;;;27.45;9.02;;;;;;;;;;5046041;28;20449;-73
2021/12/21 02:15:25;;;;;;;22.83;8.35;;;;;;;;;;5065303;28;20045;-73
2021/12/21 02:18:29;;;;;;;23.98;8.50;;;;;;;;;;5056127;28;20094;-73
2021/12/21 02:20:57;;;;;;;24.85;9.07;;;;;;;;;;5053177;28;20037;-73
2021/12/21 02:23:36;;;;;;;19.55;9.07;;;;;;;;;;5055795;28;20045;-73
2021/12/21 02:26:23;;;;;;;24.65;9.07;;;;;;;;;;5032415;28;20398;-73
2021/12/21 02:31:33;;;;;;;23.65;8.30;;;;;;;;;;5050734;28;20051;-73
2021/12/21 02:33:59;;;;;;;27.80;8.57;;;;;;;;;;5061623;28;20029;-73
2021/12/21 02:36:24;;;;;;;21.10;8.40;;;;;;;;;;5060822;28;20028;-73
2021/12/21 02:38:49;;;;;;;27.67;10.00;;;;;;;;;;5063280;28;20135;-73
2021/12/21 02:41:15;;;;;;;25.88;9.02;;;;;;;;;;5059988;28;20673;-73
2021/12/21 02:43:41;;;;;;;27.35;9.27;;;;;;;;;;5043688;28;20056;-73
2021/12/21 02:46:07;;;;;;;23.88;8.90;;;;;;;;;;5058396;28;20135;-73
2021/12/21 02:48:33;;;;;;;23.52;9.05;;;;;;;;;;5061922;28;20095;-73
2021/12/21 02:50:59;;;;;;;32.25;9.13;;;;;;;;;;5042331;28;20041;-73
2021/12/21 02:53:24;;;;;;;22.58;8.57;;;;;;;;;;5045021;28;20039;-73
2021/12/21 02:55:49;;;;;;;22.83;9.43;;;;;;;;;;5051123;28;20033;-73
2021/12/21 02:58:15;;;;;;;21.10;8.20;;;;;;;;;;5036706;28;20470;-73
2021/12/21 03:00:40;;;;;;;21.25;8.50;;;;;;;;;;5054297;28;20056;-73
2021/12/21 03:03:12;;;;;;;21.85;8.05;;;;;;;;;;5039985;28;20704;-73
2021/12/21 03:05:38;;;;;;;19.35;8.65;;;;;;;;;;5043802;28;20028;-73
2021/12/21 03:08:16;;;;;;;22.92;8.18;;;;;;;;;;5039528;28;20128;-73
2021/12/21 03:10:58;;;;;;;28.35;9.40;;;;;;;;;;5019636;28;20411;-73
2021/12/21 03:16:07;;;;;;;25.25;10.05;;;;;;;;;;5058980;28;20067;-73
2021/12/21 03:18:32;;;;;;;26.45;10.18;;;;;;;;;;5062284;28;20078;-73
2021/12/21 03:20:58;;;;;;;23.85;9.00;;;;;;;;;;5035022;28;20033;-73
2021/12/21 03:23:23;;;;;;;26.38;9.20;;;;;;;;;;5046151;28;20041;-73
2021/12/21 03:25:48;;;;;;;20.83;9.23;;;;;;;;;;5043161;28;20094;-73
2021/12/21 03:28:14;;;;;;;19.52;8.07;;;;;;;;;;5045477;28;20024;-73
2021/12/21 03:30:39;;;;;;;23.88;9.43;;;;;;;;;;5039218;28;20376;-73
2021/12/21 03:33:04;;;;;;;28.02;8.73;;;;;;;;;;5043584;28;20095;-73
2021/12/21 03:35:30;;;;;;;25.15;8.88;;;;;;;;;;5020556;28;20029;-73
2021/12/21 03:37:55;;;;;;;20.17;8.57;;;;;;;;;;5032969;28;20080;-73
2021/12/21 03:40:20;;;;;;;24.15;8.80;;;;;;;;;;5017411;28;20056;-73
2021/12/21 03:42:46;;;;;;;20.98;8.90;;;;;;;;;;5046204;28;20021;-73
2021/12/21 03:45:11;;;;;;;19.92;9.35;;;;;;;;;;5046240;28;20045;-73
2021/12/21 03:47:37;;;;;;;22.35;9.18;;;;;;;;;;5048884;28;20419;-73
2021/12/21 03:50:11;;;;;;;23.55;9.10;;;;;;;;;;5048599;28;20597;-72
2021/12/21 03:52:36;;;;;;;19.45;9.10;;;;;;;;;;5052132;28;20033;-73
2021/12/21 03:55:02;;;;;;;25.95;9.10;;;;;;;;;;5066390;28;20074;-73
2021/12/21 03:57:28;;;;;;;24.63;9.15;;;;;;;;;;5051690;28;20045;-73
2021/12/21 03:59:54;;;;;;;27.20;8.82;;;;;;;;;;5047776;28;20032;-72
2021/12/21 04:02:20;;;;;;;24.80;9.23;;;;;;;;;;5042350;28;20503;-73
2021/12/21 04:04:46;;;;;;;24.38;8.90;;;;;;;;;;5046210;28;20036;-73
2021/12/21 04:07:11;;;;;;;24.30;10.43;;;;;;;;;;5058579;28;20050;-73
2021/12/21 04:09:37;;;;;;;28.02;9.75;;;;;;;;;;5065264;28;20807;-73
2021/12/21 04:12:03;;;;;;;26.55;9.55;;;;;;;;;;5066445;28;20053;-73
2021/12/21 04:14:30;;;;;;;31.92;9.77;;;;;;;;;;5066041;28;20050;-73
2021/12/21 04:16:57;;;;;;;24.95;9.43;;;;;;;;;;5063090;28;20115;-73
2021/12/21 04:19:22;;;;;;;23.92;9.23;;;;;;;;;;5067035;28;20036;-73
2021/12/21 04:21:48;;;;;;;23.85;9.57;;;;;;;;;;5054439;28;20033;-73
2021/12/21 04:24:13;;;;;;;21.77;9.52;;;;;;;;;;5055932;28;20062;-73
2021/12/21 04:26:39;;;;;;;23.95;9.05;;;;;;;;;;5062309;28;20045;-73
2021/12/21 04:29:04;;;;;;;26.88;9.38;;;;;;;;;;5060041;28;20041;-72
2021/12/21 04:31:29;;;;;;;21.30;9.13;;;;;;;;;;5062735;28;20028;-73
2021/12/21 04:33:55;;;;;;;19.15;9.02;;;;;;;;;;5060518;28;20031;-73
2021/12/21 04:36:20;;;;;;;27.58;9.48;;;;;;;;;;5064938;28;20595;-73
2021/12/21 04:38:49;;;;;;;22.05;8.77;;;;;;;;;;5058636;28;20036;-73
2021/12/21 04:41:21;;;;;;;21.45;8.70;;;;;;;;;;5055885;28;20029;-73
2021/12/21 04:43:47;;;;;;;26.13;9.73;;;;;;;;;;5045646;28;20033;-73
2021/12/21 04:46:13;;;;;;;26.50;10.30;;;;;;;;;;5032436;28;20033;-73
2021/12/21 04:48:38;;;;;;;29.13;10.57;;;;;;;;;;5044150;28;20414;-73
2021/12/21 04:51:04;;;;;;;23.67;9.60;;;;;;;;;;5039294;28;20029;-73
2021/12/21 04:53:29;;;;;;;24.65;9.55;;;;;;;;;;5029272;28;20530;-73
2021/12/21 04:55:55;;;;;;;24.27;8.70;;;;;;;;;;5038811;28;20040;-73
2021/12/21 04:58:20;;;;;;;25.55;9.23;;;;;;;;;;5045724;28;20056;-73
2021/12/21 05:00:47;;;;;;;18.02;9.23;;;;;;;;;;5039032;28;20028;-73
2021/12/21 05:03:13;;;;;;;23.77;9.05;;;;;;;;;;5030768;28;20083;-73
2021/12/21 05:05:39;;;;;;;19.20;8.40;;;;;;;;;;5030940;28;20045;-73
2021/12/21 05:08:10;;;;;;;30.08;9.70;;;;;;;;;;5038584;28;20098;-73
2021/12/21 05:10:50;;;;;;;21.45;9.38;;;;;;;;;;5039963;28;20045;-73
2021/12/21 05:13:17;;;;;;;25.13;9.00;;;;;;;;;;5028855;28;20041;-73
2021/12/21 05:15:43;;;;;;;26.52;10.40;;;;;;;;;;5033848;28;20025;-72
2021/12/21 05:18:09;;;;;;;23.92;9.48;;;;;;;;;;5041293;28;20039;-73
2021/12/21 05:20:34;;;;;;;25.58;9.93;;;;;;;;;;5039475;28;20123;-73
2021/12/21 05:22:59;;;;;;;29.60;9.82;;;;;;;;;;5044400;28;20132;-73
2021/12/21 05:25:25;;;;;;;25.92;10.05;;;;;;;;;;5029119;28;20040;-73
2021/12/21 05:27:50;;;;;;;25.95;9.63;;;;;;;;;;5044628;28;20033;-73
2021/12/21 05:30:15;;;;;;;27.52;9.85;;;;;;;;;;5030342;28;20029;-73
2021/12/21 05:32:41;;;;;;;20.45;9.40;;;;;;;;;;5045195;28;20423;-73
2021/12/21 05:35:09;;;;;;;31.95;10.52;;;;;;;;;;5039092;28;20502;-73
2021/12/21 05:37:37;;;;;;;24.10;9.95;;;;;;;;;;5040336;28;20041;-73
2021/12/21 05:40:15;;;;;;;27.52;10.68;;;;;;;;;;5037712;28;20024;-72
2021/12/21 05:42:42;;;;;;;25.45;10.10;;;;;;;;;;5035921;28;20120;-73
2021/12/21 05:45:09;;;;;;;21.88;8.82;;;;;;;;;;5050124;28;20044;-73
2021/12/21 05:47:35;;;;;;;28.65;10.10;;;;;;;;;;5060898;28;20048;-73
2021/12/21 05:50:05;;;;;;;25.67;9.93;;;;;;;;;;5061437;28;20125;-73
2021/12/21 05:52:31;;;;;;;27.85;9.68;;;;;;;;;;5061644;28;20048;-72
2021/12/21 05:54:56;;;;;;;29.83;10.02;;;;;;;;;;5057684;28;20032;-72
2021/12/21 05:57:22;;;;;;;28.02;10.60;;;;;;;;;;5059193;28;20543;-73
2021/12/21 05:59:48;;;;;;;34.30;10.77;;;;;;;;;;5050427;28;20537;-73
2021/12/21 06:02:13;;;;;;;26.48;10.35;;;;;;;;;;5057844;28;20032;-73
2021/12/21 06:04:39;;;;;;;29.40;10.10;;;;;;;;;;5057268;28;20028;-73
2021/12/21 06:07:04;;;;;;;27.33;10.02;;;;;;;;;;5064308;28;20582;-73
2021/12/21 06:09:30;;;;;;;25.80;10.25;;;;;;;;;;5047814;28;20041;-72
2021/12/21 06:12:15;;;;;;;30.88;10.25;;;;;;;;;;5057358;28;20036;-73
2021/12/21 06:15:09;;;;;;;26.40;10.38;;;;;;;;;;5057611;28;20532;-73
2021/12/21 06:25:40;;;;;;;35.53;12.70;;;;;;;;;;5049185;28;20490;-73
2021/12/21 06:28:11;;;;;;;27.98;12.48;;;;;;;;;;5061070;28;20513;-73
2021/12/21 06:30:39;;;;;;;29.95;12.23;;;;;;;;;;5062871;28;20051;-72
2021/12/21 06:33:06;;;;;;;30.52;11.07;;;;;;;;;;5056837;28;20028;-73
2021/12/21 06:35:32;;;;;;;24.85;9.52;;;;;;;;;;5063381;28;20051;-72
2021/12/21 06:37:58;;;;;;;27.48;10.02;;;;;;;;;;5054598;28;20041;-72
2021/12/21 06:40:25;;;;;;;29.42;10.65;;;;;;;;;;5048536;28;20033;-73
2021/12/21 06:42:51;;;;;;;22.55;8.85;;;;;;;;;;5043812;28;20024;-73
2021/12/21 06:45:29;;;;;;;27.33;10.80;;;;;;;;;;5046711;28;20399;-73
2021/12/21 06:53:24;;;;;;;27.73;11.95;;;;;;;;;;5049610;28;20079;-72
2021/12/21 06:55:50;;;;;;;31.10;10.77;;;;;;;;;;5046442;28;20033;-74
2021/12/21 06:58:15;;;;;;;24.55;10.70;;;;;;;;;;5056679;28;20009;-75
2021/12/21 07:00:42;;;;;;;25.25;10.50;;;;;;;;;;5040801;28;20025;-75
2021/12/21 07:03:08;;;;;;;24.42;10.27;;;;;;;;;;5045579;28;20060;-74
2021/12/21 07:05:33;;;;;;;27.08;9.38;;;;;;;;;;5052711;28;20065;-75
2021/12/21 07:07:59;;;;;;;38.08;10.48;;;;;;;;;;5052179;28;20068;-74
2021/12/21 07:10:27;;;;;;;30.08;10.82;;;;;;;;;;5041160;28;20576;-74
2021/12/21 07:18:26;;;;;;;24.83;9.13;;;;;;;;;;5046316;28;20094;-76
2021/12/21 07:20:52;;;;;;;27.88;10.85;;;;;;;;;;5041738;28;20435;-78
2021/12/21 07:23:17;;;;;;;22.77;9.77;;;;;;;;;;5048274;28;20037;-78
2021/12/21 07:25:42;;;;;;;25.85;9.68;;;;;;;;;;5045366;28;20056;-78
2021/12/21 07:28:08;;;;;;;24.60;9.82;;;;;;;;;;5039788;28;20030;-78
2021/12/21 07:30:33;;;;;;;30.25;10.73;;;;;;;;;;5065097;28;20033;-78
2021/12/21 07:32:58;;;;;;;25.90;10.48;;;;;;;;;;5045477;28;20029;-77
2021/12/21 07:35:24;;;;;;;28.25;10.98;;;;;;;;;;5052114;28;20037;-79
2021/12/21 07:37:49;;;;;;;21.90;10.02;;;;;;;;;;5057993;28;20033;-79
2021/12/21 07:40:15;;;;;;;25.90;10.23;;;;;;;;;;5066640;28;20491;-78
2021/12/21 07:42:40;;;;;;;28.17;9.88;;;;;;;;;;5064639;28;20023;-78
2021/12/21 07:45:06;;;;;;;26.77;10.80;;;;;;;;;;5053165;28;20071;-78
2021/12/21 07:47:32;;;;;;;29.70;10.15;;;;;;;;;;5017804;28;20029;-78
2021/12/21 07:49:58;;;;;;;31.45;10.98;;;;;;;;;;5019331;28;20428;-78
2021/12/21 07:52:23;;;;;;;23.35;9.57;;;;;;;;;;5038542;28;20065;-77
2021/12/21 07:54:49;;;;;;;29.40;10.32;;;;;;;;;;5040641;28;20049;-77
2021/12/21 07:57:14;;;;;;;19.50;9.55;;;;;;;;;;5020296;28;20624;-78
2021/12/21 07:59:40;;;;;;;25.85;9.90;;;;;;;;;;5017273;28;20130;-76
2021/12/21 08:02:06;;;;;;;19.27;8.77;;;;;;;;;;5014085;28;20041;-77
2021/12/21 08:04:33;;;;;;;22.80;8.30;;;;;;;;;;5014699;28;20123;-76
2021/12/21 08:07:06;;;;;;;29.15;10.23;;;;;;;;;;5000199;28;20030;-76
2021/12/21 08:09:38;;;;;;;27.65;10.48;;;;;;;;;;5021549;28;20457;-76
2021/12/21 08:12:15;;;;;;;20.55;9.88;;;;;;;;;;5024459;28;20038;-76
2021/12/21 08:14:49;;;;;;;24.25;9.30;;;;;;;;;;5000643;28;20083;-76
2021/12/21 08:17:16;;;;;;;22.95;10.00;;;;;;;;;;5015405;28;20436;-76
2021/12/21 08:19:41;;;;;;;25.13;10.70;;;;;;;;;;5015210;28;20507;-76
2021/12/21 08:22:07;;;;;;;30.38;10.90;;;;;;;;;;4994999;28;20030;-76
2021/12/21 08:24:33;;;;;;;29.80;12.15;;;;;;;;;;5011360;28;20106;-76
2021/12/21 08:27:00;;;;;;;31.23;12.52;;;;;;;;;;4997035;28;20377;-76
2021/12/21 08:29:26;;;;;;;26.65;11.70;;;;;;;;;;5023620;28;20601;-76
2021/12/21 08:31:52;;;;;;;31.55;11.32;;;;;;;;;;5034153;28;20034;-81
2021/12/21 08:34:18;;;;;;;31.23;11.07;;;;;;;;;;5022353;28;20033;-79
2021/12/21 08:36:43;;;;;;;28.55;11.23;;;;;;;;;;5019613;28;20514;-74
2021/12/21 08:39:09;;;;;;;27.92;10.98;;;;;;;;;;5020669;28;20462;-76
2021/12/21 08:41:41;;;;;;;22.23;9.88;;;;;;;;;;5025028;28;20132;-80
2021/12/21 08:44:09;;;;;;;27.63;10.90;;;;;;;;;;5016064;28;20034;-73
2021/12/21 08:46:35;;;;;;;29.88;12.25;;;;;;;;;;5014312;28;21932;-79
2021/12/21 08:49:00;;;;;;;28.77;11.70;;;;;;;;;;5036722;28;20171;-78
2021/12/21 08:51:25;;;;;;;27.98;11.75;;;;;;;;;;5032484;28;20505;-76
2021/12/21 08:53:50;;;;;;;36.53;12.50;;;;;;;;;;5062031;28;20501;-75
2021/12/21 08:56:16;;;;;;;28.52;12.13;;;;;;;;;;5057218;28;20049;-75
2021/12/21 08:58:42;;;;;;;35.15;13.90;;;;;;;;;;5068917;28;20036;-75
2021/12/21 09:01:07;;;;;;;27.13;11.05;;;;;;;;;;5055122;28;20047;-77
2021/12/21 09:03:33;;;;;;;26.65;11.25;;;;;;;;;;5037260;28;20087;-78
2021/12/21 09:05:59;;;;;;;28.40;11.75;;;;;;;;;;5038635;28;20095;-77
2021/12/21 09:08:25;;;;;;;23.90;9.77;;;;;;;;;;5040858;28;20053;-78
2021/12/21 09:10:51;;;;;;;25.75;10.88;;;;;;;;;;5050103;28;20033;-78
2021/12/21 09:13:17;;;;;;;25.95;11.80;;;;;;;;;;5043323;28;20056;-78
2021/12/21 09:15:43;;;;;;;26.38;10.90;;;;;;;;;;5044472;28;20048;-78
2021/12/21 09:18:08;;;;;;;31.80;13.23;;;;;;;;;;5044315;28;20087;-77
2021/12/21 09:20:34;;;;;;;31.88;14.07;;;;;;;;;;5075630;28;20045;-78
2021/12/21 09:23:00;;;;;;;39.53;14.65;;;;;;;;;;5044289;28;20048;-78
2021/12/21 09:25:27;;;;;;;33.22;14.57;;;;;;;;;;5053771;28;20041;-78
2021/12/21 09:27:53;;;;;;;29.27;11.45;;;;;;;;;;5042456;28;20594;-78
2021/12/21 09:30:21;;;;;;;27.80;11.38;;;;;;;;;;5043743;28;20296;-78
2021/12/21 09:32:47;;;;;;;29.02;12.57;;;;;;;;;;5039024;28;20072;-78
2021/12/21 09:35:14;;;;;;;37.45;13.30;;;;;;;;;;5038520;28;20041;-75
2021/12/21 09:37:39;;;;;;;29.20;12.95;;;;;;;;;;5042994;28;20084;-75
2021/12/21 09:40:13;;;;;;;35.75;13.10;;;;;;;;;;5041967;28;20421;-79
2021/12/21 09:42:38;;;;;;;;;;;;;;;;;;5054754;28;20035;-77
2021/12/21 09:45:05;;;;;;;36.72;12.02;;;;;;;;;;5036032;28;19913;-77
2021/12/21 09:47:32;;;;;;;26.63;11.18;;;;;;;;;;5018872;28;20033;-76
2021/12/21 09:49:57;;;;;;;27.40;9.88;;;;;;;;;;5036663;28;20507;-80
2021/12/21 09:52:29;;;;;;;32.20;12.10;;;;;;;;;;5031303;28;20041;-78
2021/12/21 09:54:55;;;;;;;33.15;11.60;;;;;;;;;;5032052;28;20036;-76
2021/12/21 09:57:21;;;;;;;29.90;11.80;;;;;;;;;;5029215;28;20074;-76
2021/12/21 09:59:49;;;;;;;26.00;11.13;;;;;;;;;;5041546;28;20873;-77
2021/12/21 10:02:17;;;;;;;30.98;11.70;;;;;;;;;;5037423;28;20160;-76
2021/12/21 10:04:58;;;;;;;30.33;11.38;;;;;;;;;;5028043;28;20064;-76
2021/12/21 10:07:25;;;;;;;27.13;11.63;;;;;;;;;;5022720;28;20065;-76
2021/12/21 10:10:03;;;;;;;30.70;12.40;;;;;;;;;;5023996;28;20080;-76
2021/12/21 10:12:31;;;;;;;29.65;12.40;;;;;;;;;;5022858;28;20025;-79
2021/12/21 10:15:05;;;;;;;26.73;11.80;;;;;;;;;;4989775;28;20038;-79
2021/12/21 10:17:33;;;;;;;26.42;11.88;;;;;;;;;;4996306;28;20029;-81
2021/12/21 10:20:00;;;;;;;26.88;12.32;;;;;;;;;;5014446;28;20128;-82
2021/12/21 10:22:25;;;;;;;33.92;11.85;;;;;;;;;;5023748;28;20691;-81
2021/12/21 10:24:53;;;;;;;25.75;11.55;;;;;;;;;;5037223;28;20052;-77
2021/12/21 10:27:20;;;;;;;25.77;11.23;;;;;;;;;;5019073;28;20053;-77
2021/12/21 10:29:55;;;;;;;27.42;10.85;;;;;;;;;;5041692;28;20106;-76
2021/12/21 10:32:26;;;;;;;25.80;11.00;;;;;;;;;;5030959;28;20029;-75
2021/12/21 10:34:55;;;;;;;24.35;10.95;;;;;;;;;;5037213;28;20079;-77
2021/12/21 10:37:25;;;;;;;27.80;11.43;;;;;;;;;;5039074;28;20094;-77
2021/12/21 10:40:02;;;;;;;20.08;9.60;;;;;;;;;;5028823;28;20114;-79
2021/12/21 10:42:27;;;;;;;24.13;9.93;;;;;;;;;;5044669;28;20036;-82
2021/12/21 10:45:02;;;;;;;22.70;10.32;;;;;;;;;;5037540;28;20445;-78
2021/12/21 10:47:29;;;;;;;22.38;10.23;;;;;;;;;;5007882;28;20041;-77
2021/12/21 10:49:54;;;;;;;26.10;10.82;;;;;;;;;;5027842;28;20090;-79
2021/12/21 10:52:20;;;;;;;27.73;10.57;;;;;;;;;;5015996;28;20038;-78
2021/12/21 10:54:47;;;;;;;27.55;10.30;;;;;;;;;;5007990;28;20029;-77
2021/12/21 10:57:14;;;;;;;23.65;10.52;;;;;;;;;;5015094;28;20106;-82
2021/12/21 10:59:45;;;;;;;28.25;10.77;;;;;;;;;;5019759;28;20528;-77
2021/12/21 11:02:15;;;;;;;23.27;10.90;;;;;;;;;;5023175;28;20037;-77
2021/12/21 11:04:44;;;;;;;25.70;11.13;;;;;;;;;;5014902;28;20103;-81
2021/12/21 11:10:09;;;;;;;20.27;10.32;;;;;;;;;;5023001;28;20064;-80
2021/12/21 11:13:05;;;;;;;21.17;9.93;;;;;;;;;;5001090;28;20044;-79
2021/12/21 11:15:34;;;;;;;28.45;10.73;;;;;;;;;;5017769;28;20743;-79
2021/12/21 11:18:03;;;;;;;29.60;10.73;;;;;;;;;;5014135;28;20056;-77
2021/12/21 11:20:29;;;;;;;26.63;11.02;;;;;;;;;;4995141;28;20046;-77
2021/12/21 11:22:55;;;;;;;21.00;9.98;;;;;;;;;;5013394;28;20033;-77
2021/12/21 11:25:22;;;;;;;23.33;10.65;;;;;;;;;;5020814;28;20033;-79
2021/12/21 11:27:49;;;;;;;21.45;10.20;;;;;;;;;;5021582;28;20042;-79
2021/12/21 11:30:18;;;;;;;26.88;10.07;;;;;;;;;;5018163;28;20043;-80
2021/12/21 11:32:49;;;;;;;21.58;9.90;;;;;;;;;;5012044;28;20041;-78
2021/12/21 11:37:49;;;;;;;29.33;10.95;;;;;;;;;;5041826;28;20025;-78
2021/12/21 11:40:19;;;;;;;31.20;11.63;;;;;;;;;;5042860;28;20605;-76
2021/12/21 11:42:51;;;;;;;27.10;11.40;;;;;;;;;;5038633;28;20437;-74
2021/12/21 11:45:27;;;;;;;35.60;12.85;;;;;;;;;;5039832;28;20053;-76
2021/12/21 11:48:10;;;;;;;26.85;10.18;;;;;;;;;;5017055;28;20072;-77
2021/12/21 11:50:37;;;;;;;;;;;;;;;;;;5039475;28;20045;-77
2021/12/21 11:53:06;;;;;;;23.38;8.55;;;;;;;;;;5037861;28;19917;-77
2021/12/21 11:55:33;;;;;;;25.77;10.20;;;;;;;;;;5028477;28;20045;-77
2021/12/21 11:58:13;;;;;;;19.00;8.95;;;;;;;;;;5023974;28;20099;-77
2021/12/21 12:00:44;;;;;;;24.13;8.77;;;;;;;;;;5022169;28;20034;-77
2021/12/21 12:03:13;;;;;;;21.15;9.30;;;;;;;;;;5023049;28;20039;-77
2021/12/21 12:05:49;;;;;;;20.45;8.75;;;;;;;;;;5017825;28;20044;-77
2021/12/21 12:08:14;;;;;;;24.55;9.93;;;;;;;;;;5021599;28;20045;-77
2021/12/21 12:10:54;;;;;;;20.83;9.40;;;;;;;;;;5019536;28;20140;-77
2021/12/21 12:13:37;;;;;;;18.30;8.27;;;;;;;;;;5020068;28;20569;-78
2021/12/21 12:16:13;;;;;;;18.35;9.52;;;;;;;;;;5022117;28;20299;-78
2021/12/21 12:18:45;;;;;;;18.58;8.20;;;;;;;;;;5015219;28;20033;-77
2021/12/21 12:21:19;;;;;;;24.13;8.43;;;;;;;;;;5022897;28;20030;-78
2021/12/21 12:23:49;;;;;;;18.17;8.43;;;;;;;;;;5001543;28;20033;-78
2021/12/21 12:26:30;;;;;;;16.90;7.72;;;;;;;;;;5018674;28;20025;-76
2021/12/21 12:29:09;;;;;;;19.45;8.40;;;;;;;;;;5017389;28;20029;-78
2021/12/21 12:31:37;;;;;;;22.80;9.57;;;;;;;;;;5031051;28;20053;-78
2021/12/21 12:34:03;;;;;;;23.65;9.98;;;;;;;;;;5036129;28;20034;-79
2021/12/21 12:36:51;;;;;;;24.80;10.27;;;;;;;;;;5033861;28;20041;-78
2021/12/21 12:39:34;;;;;;;22.38;8.57;;;;;;;;;;5028791;28;20045;-79
2021/12/21 12:42:24;;;;;;;20.95;8.07;;;;;;;;;;5030227;28;20052;-78
2021/12/21 12:45:04;;;;;;;20.42;7.97;;;;;;;;;;5025267;28;20132;-79
2021/12/21 12:47:30;;;;;;;16.85;7.05;;;;;;;;;;5047739;28;23212;-79
2021/12/21 12:49:55;;;;;;;14.55;7.43;;;;;;;;;;5056011;28;20032;-79
2021/12/21 12:52:28;;;;;;;14.13;5.70;;;;;;;;;;5055546;28;20036;-78
2021/12/21 12:55:12;;;;;;;11.27;5.70;;;;;;;;;;5053215;28;20041;-79
2021/12/21 12:57:39;;;;;;;12.43;4.82;;;;;;;;;;5054799;28;20371;-71
2021/12/21 13:00:16;;;;;;;13.40;4.82;;;;;;;;;;5052110;28;20529;-74
2021/12/21 13:03:04;;;;;;;11.25;4.57;;;;;;;;;;5053471;28;20059;-74
2021/12/21 13:05:41;;;;;;;10.27;4.25;;;;;;;;;;5051313;28;20078;-73
2021/12/21 13:08:17;;;;;;;9.80;4.70;;;;;;;;;;5048420;28;20593;-73
2021/12/21 13:10:46;;;;;;;10.95;4.30;;;;;;;;;;5052950;28;20506;-74
2021/12/21 13:13:12;;;;;;;11.75;4.72;;;;;;;;;;5057200;28;20127;-74
2021/12/21 13:15:43;;;;;;;10.25;4.82;;;;;;;;;;5051186;28;20049;-74
2021/12/21 13:18:12;;;;;;;10.32;4.80;;;;;;;;;;5046359;28;20045;-75
2021/12/21 13:20:40;;;;;;;13.25;4.57;;;;;;;;;;5042434;28;20437;-75
2021/12/21 13:23:14;;;;;;;14.27;5.18;;;;;;;;;;5029469;28;20029;-75
2021/12/21 13:25:51;;;;;;;12.10;5.32;;;;;;;;;;5029594;28;20087;-76
2021/12/21 13:28:16;;;;;;;10.43;5.25;;;;;;;;;;5047133;28;20160;-75
2021/12/21 13:30:47;;;;;;;18.00;5.82;;;;;;;;;;5054827;28;20119;-75
2021/12/21 13:33:22;;;;;;;11.40;5.78;;;;;;;;;;5050870;28;20044;-76
2021/12/21 13:35:49;;;;;;;16.08;5.88;;;;;;;;;;5053357;28;20063;-76
2021/12/21 13:38:15;;;;;;;11.05;5.60;;;;;;;;;;5052570;28;21430;-75
2021/12/21 13:40:41;;;;;;;11.27;5.63;;;;;;;;;;5056621;28;20452;-75
2021/12/21 13:43:11;;;;;;;14.43;6.13;;;;;;;;;;5054488;28;20052;-75
2021/12/21 13:45:36;;;;;;;17.95;6.63;;;;;;;;;;5048874;28;20120;-76
2021/12/21 13:48:02;;;;;;;18.92;6.78;;;;;;;;;;5030563;28;20128;-72
2021/12/21 13:50:27;;;;;;;20.63;6.63;;;;;;;;;;5032079;28;20518;-79
2021/12/21 13:52:54;;;;;;;15.57;5.60;;;;;;;;;;5016204;28;20028;-77
2021/12/21 13:55:38;;;;;;;13.23;4.75;;;;;;;;;;5035092;28;20052;-72
2021/12/21 13:58:07;;;;;;;13.23;5.70;;;;;;;;;;5034675;28;20135;-72
2021/12/21 14:00:36;;;;;;;10.07;5.45;;;;;;;;;;5031907;28;20116;-75
2021/12/21 14:03:13;;;;;;;13.20;5.70;;;;;;;;;;5028468;28;20036;-73
2021/12/21 14:05:44;;;;;;;16.52;6.60;;;;;;;;;;5031593;28;20045;-74
2021/12/21 14:08:14;;;;;;;13.10;6.93;;;;;;;;;;5035654;28;20053;-74
2021/12/21 14:10:51;;;;;;;15.38;7.55;;;;;;;;;;5020992;28;20063;-75
2021/12/21 14:13:25;;;;;;;18.23;8.73;;;;;;;;;;5033677;28;20116;-74
2021/12/21 14:15:51;;;;;;;24.90;9.13;;;;;;;;;;5039693;28;20045;-73
2021/12/21 14:18:18;;;;;;;20.13;8.35;;;;;;;;;;5038471;28;20102;-72
2021/12/21 14:20:45;;;;;;;14.20;7.40;;;;;;;;;;5035014;28;20041;-72
2021/12/21 14:23:19;;;;;;;18.13;7.18;;;;;;;;;;5031801;28;20064;-73
2021/12/21 14:25:45;;;;;;;16.58;6.90;;;;;;;;;;5006644;28;20043;-75
2021/12/21 14:28:13;;;;;;;13.02;5.45;;;;;;;;;;5024159;28;20042;-75
2021/12/21 14:30:38;;;;;;;14.57;4.88;;;;;;;;;;5038978;28;20041;-76
2021/12/21 14:33:09;;;;;;;12.45;5.35;;;;;;;;;;5031893;28;20040;-75
2021/12/21 14:35:37;;;;;;;21.20;5.78;;;;;;;;;;5025884;28;20036;-73
2021/12/21 14:38:15;;;;;;;11.52;5.22;;;;;;;;;;5027786;28;20057;-73
2021/12/21 14:40:48;;;;;;;12.63;5.53;;;;;;;;;;5032845;28;20067;-73
2021/12/21 14:43:27;;;;;;;11.25;5.18;;;;;;;;;;5033933;28;20726;-72
2021/12/21 14:45:55;;;;;;;13.43;6.05;;;;;;;;;;5034367;28;20057;-74
2021/12/21 14:48:21;;;;;;;15.10;5.75;;;;;;;;;;5035076;28;20052;-74
2021/12/21 14:50:53;;;;;;;12.63;6.03;;;;;;;;;;5034471;28;20057;-74
2021/12/21 14:53:28;;;;;;;14.68;5.50;;;;;;;;;;5030497;28;20041;-72
2021/12/21 14:55:53;;;;;;;15.13;5.70;;;;;;;;;;5023878;28;20031;-72
2021/12/21 14:58:19;;;;;;;13.73;5.60;;;;;;;;;;5027445;28;20825;-72
2021/12/21 15:00:57;;;;;;;15.88;7.03;;;;;;;;;;5031336;28;20091;-71
2021/12/21 15:03:22;;;;;;;31.30;12.27;;;;;;;;;;5031252;28;20037;-71
2021/12/21 15:05:49;;;;;;;43.53;18.83;;;;;;;;;;5037361;28;20033;-68
2021/12/21 15:08:20;;;;;;;43.95;16.45;;;;;;;;;;5023404;28;20033;-75
2021/12/21 15:10:45;;;;;;;44.20;15.38;;;;;;;;;;5035762;28;20037;-75
2021/12/21 15:13:14;;;;;;;32.72;13.52;;;;;;;;;;5027306;28;20037;-73
2021/12/21 15:15:40;;;;;;;28.35;8.70;;;;;;;;;;5033109;28;20421;-73
2021/12/21 15:18:07;;;;;;;21.15;7.22;;;;;;;;;;5032036;28;20494;-72
2021/12/21 15:20:33;;;;;;;27.48;10.18;;;;;;;;;;5037500;28;20453;-73
2021/12/21 15:22:58;;;;;;;25.30;8.75;;;;;;;;;;5038788;28;20790;-75
2021/12/21 15:25:25;;;;;;;36.95;11.25;;;;;;;;;;5037027;28;20073;-71
2021/12/21 15:27:51;;;;;;;64.38;23.00;;;;;;;;;;5033884;28;20538;-72
2021/12/21 15:30:19;;;;;;;57.92;21.20;;;;;;;;;;5037771;28;20060;-72
2021/12/21 15:32:46;;;;;;;45.88;17.60;;;;;;;;;;5030928;28;20414;-74
2021/12/21 15:35:12;;;;;;;31.30;11.70;;;;;;;;;;5033106;28;20407;-71
2021/12/21 15:37:38;;;;;;;63.17;21.40;;;;;;;;;;5030229;28;20025;-73